createdAt,value
2023-04-24T00:03:06.937Z,77.07
2023-04-24T00:17:59.251Z,76.68
2023-04-24T00:32:50.283Z,75.28
2023-04-24T00:47:41.159Z,75.22
2023-04-24T01:02:32.208Z,75.34
2023-04-24T01:17:22.971Z,76.34
2023-04-24T01:32:12.873Z,77.30
2023-04-24T01:47:03.795Z,80.15
2023-04-24T02:01:55.579Z,80.95
2023-04-24T02:16:48.047Z,81.77
2023-04-24T02:31:42.527Z,82.20
2023-04-24T02:46:33.924Z,82.71
2023-04-24T03:01:27.094Z,88.31
2023-04-24T03:16:21.835Z,88.64
2023-04-24T03:31:13.939Z,90.70
2023-04-24T03:46:25.318Z,89.91
2023-04-24T04:01:26.464Z,89.45
2023-04-24T04:16:20.356Z,87.82
2023-04-24T04:46:16.742Z,82.08
2023-04-24T05:01:07.943Z,82.38
2023-04-24T05:30:51.582Z,82.40
2023-04-24T06:00:35.711Z,77.12
2023-04-24T06:45:09.218Z,74.06
2023-04-24T07:14:52.385Z,68.87
2023-04-24T08:14:17.191Z,66.40
2023-04-24T09:13:44.398Z,63.40
2023-04-24T09:28:37.368Z,60.28
2023-04-24T09:43:31.533Z,56.62
2023-04-24T09:58:27.315Z,57.17
2023-04-24T10:13:22.381Z,56.23
2023-04-24T10:28:12.811Z,57.39
2023-04-24T10:43:03.712Z,58.11
2023-04-24T10:58:03.645Z,59.54
2023-04-24T11:12:57.780Z,63.70
2023-04-24T11:27:49.488Z,62.29
2023-04-24T11:42:42.651Z,63.46
2023-04-24T11:57:34.801Z,66.50
2023-04-24T12:12:27.515Z,64.09
2023-04-24T12:27:20.460Z,57.36
2023-04-24T12:42:11.760Z,55.54
2023-04-24T12:57:03.503Z,52.12
2023-04-24T13:11:53.942Z,54.86
2023-04-24T13:26:46.895Z,54.76
2023-04-24T13:41:39.422Z,51.15
2023-04-24T13:56:29.511Z,53.54
2023-04-24T14:11:20.409Z,55.77
2023-04-24T14:41:09.248Z,63.67
2023-04-24T15:10:52.215Z,56.80
2023-04-24T15:25:40.413Z,57.86
2023-04-24T15:40:29.652Z,66.66
2023-04-24T15:55:19.667Z,65.37
2023-04-24T16:10:17.844Z,64.52
2023-04-24T16:25:09.911Z,65.66
2023-04-24T16:40:02.529Z,63.99
2023-04-24T17:09:43.502Z,71.23
2023-04-24T17:39:25.834Z,73.21
2023-04-24T17:56:34.762Z,74.09
2023-04-24T17:59:01.467Z,74.14
2023-04-24T18:13:18.093Z,72.58
2023-04-24T18:28:11.638Z,75.35
2023-04-24T18:43:01.354Z,75.31
2023-04-24T18:57:53.051Z,75.09
2023-04-24T19:12:44.358Z,76.11
2023-04-24T19:27:36.278Z,74.26
2023-04-24T19:42:41.998Z,73.51
2023-04-24T19:57:18.889Z,75.87
2023-04-24T20:12:11.452Z,74.51
2023-04-24T20:27:03.161Z,73.98
2023-04-24T20:41:54.460Z,75.26
2023-04-24T20:56:46.185Z,75.72
2023-04-24T21:11:37.045Z,76.74
2023-04-24T21:26:28.145Z,78.00
2023-04-24T21:41:19.422Z,77.04
2023-04-24T21:56:11.193Z,74.54
2023-04-24T22:11:02.101Z,70.66
2023-04-24T22:25:52.326Z,74.90
2023-04-24T22:40:43.227Z,75.68
2023-04-24T22:55:36.224Z,76.62
2023-04-24T23:40:12.369Z,80.21
